sensor_id;sensor_type;location;lat;lon;timestamp;noise_LAeq;noise_LA_min;noise_LA_max;noise_LA01;noise_LA95
60116;Laerm;62818;49.394;8.686;2024-03-06T00:01:54;68.75;40.71;85.90;;
60116;Laerm;62818;49.394;8.686;2024-03-06T00:06:55;68.87;38.21;85.26;;
60116;Laerm;62818;49.394;8.686;2024-03-06T00:11:57;69.01;39.58;84.44;;
60116;Laerm;62818;49.394;8.686;2024-03-06T00:16:58;69.47;40.43;84.27;;
60116;Laerm;62818;49.394;8.686;2024-03-06T00:22:02;69.00;39.57;84.87;;
60116;Laerm;62818;49.394;8.686;2024-03-06T00:27:03;69.87;38.37;85.10;;
60116;Laerm;62818;49.394;8.686;2024-03-06T00:32:05;47.01;37.70;64.22;;
60116;Laerm;62818;49.394;8.686;2024-03-06T00:37:05;69.92;36.91;84.57;;
60116;Laerm;62818;49.394;8.686;2024-03-06T00:42:06;69.75;37.35;84.52;;
60116;Laerm;62818;49.394;8.686;2024-03-06T00:47:09;69.87;38.32;84.71;;
60116;Laerm;62818;49.394;8.686;2024-03-06T00:52:09;69.09;37.32;85.41;;
60116;Laerm;62818;49.394;8.686;2024-03-06T00:57:10;69.09;38.95;85.31;;
60116;Laerm;62818;49.394;8.686;2024-03-06T01:02:10;69.14;36.91;85.35;;
60116;Laerm;62818;49.394;8.686;2024-03-06T01:07:11;68.99;39.21;84.74;;
60116;Laerm;62818;49.394;8.686;2024-03-06T01:12:11;69.42;37.32;84.68;;
60116;Laerm;62818;49.394;8.686;2024-03-06T01:17:15;68.96;36.69;85.04;;
60116;Laerm;62818;49.394;8.686;2024-03-06T01:22:15;69.62;37.12;85.14;;
60116;Laerm;62818;49.394;8.686;2024-03-06T01:27:16;69.55;35.94;84.89;;
60116;Laerm;62818;49.394;8.686;2024-03-06T01:32:17;69.54;37.70;85.52;;
60116;Laerm;62818;49.394;8.686;2024-03-06T01:37:17;69.22;38.52;84.99;;
60116;Laerm;62818;49.394;8.686;2024-03-06T01:42:18;69.10;38.67;84.98;;
60116;Laerm;62818;49.394;8.686;2024-03-06T01:47:18;69.14;38.67;84.85;;
60116;Laerm;62818;49.394;8.686;2024-03-06T01:52:22;68.99;38.37;85.94;;
60116;Laerm;62818;49.394;8.686;2024-03-06T01:57:23;69.95;38.81;85.23;;
60116;Laerm;62818;49.394;8.686;2024-03-06T02:02:23;69.48;37.70;84.73;;
60116;Laerm;62818;49.394;8.686;2024-03-06T02:07:24;69.74;36.45;84.79;;
60116;Laerm;62818;49.394;8.686;2024-03-06T02:12:25;69.44;37.32;85.82;;
60116;Laerm;62818;49.394;8.686;2024-03-06T02:17:25;69.64;38.05;84.35;;
60116;Laerm;62818;49.394;8.686;2024-03-06T02:22:26;69.04;37.52;85.41;;
60116;Laerm;62818;49.394;8.686;2024-03-06T02:27:26;69.24;37.52;84.89;;
60116;Laerm;62818;49.394;8.686;2024-03-06T02:32:27;69.44;35.36;84.84;;
60116;Laerm;62818;49.394;8.686;2024-03-06T02:37:27;69.47;37.12;85.18;;
60116;Laerm;62818;49.394;8.686;2024-03-06T02:42:28;69.45;38.05;84.58;;
60116;Laerm;62818;49.394;8.686;2024-03-06T02:47:29;69.26;37.32;85.25;;
60116;Laerm;62818;49.394;8.686;2024-03-06T02:52:29;69.42;37.70;85.22;;
60116;Laerm;62818;49.394;8.686;2024-03-06T02:57:30;68.78;37.32;85.05;;
60116;Laerm;62818;49.394;8.686;2024-03-06T03:02:30;69.41;38.52;84.65;;
60116;Laerm;62818;49.394;8.686;2024-03-06T03:07:31;69.05;39.34;85.09;;
60116;Laerm;62818;49.394;8.686;2024-03-06T03:12:32;68.98;40.13;84.85;;
60116;Laerm;62818;49.394;8.686;2024-03-06T03:17:32;69.15;39.21;84.69;;
60116;Laerm;62818;49.394;8.686;2024-03-06T03:22:34;69.26;37.88;84.79;;
60116;Laerm;62818;49.394;8.686;2024-03-06T03:27:34;69.27;37.88;85.00;;
60116;Laerm;62818;49.394;8.686;2024-03-06T03:32:37;69.49;37.32;85.27;;
60116;Laerm;62818;49.394;8.686;2024-03-06T03:37:37;51.11;39.08;67.47;;
60116;Laerm;62818;49.394;8.686;2024-03-06T03:42:38;69.95;41.75;85.23;;
60116;Laerm;62818;49.394;8.686;2024-03-06T03:47:40;69.55;39.21;84.86;;
60116;Laerm;62818;49.394;8.686;2024-03-06T03:52:43;70.05;38.67;85.48;;
60116;Laerm;62818;49.394;8.686;2024-03-06T03:57:46;51.76;40.89;66.37;;
60116;Laerm;62818;49.394;8.686;2024-03-06T04:02:47;70.15;38.52;84.96;;
60116;Laerm;62818;49.394;8.686;2024-03-06T04:07:48;69.29;39.21;85.08;;
60116;Laerm;62818;49.394;8.686;2024-03-06T04:12:48;69.43;40.13;84.73;;
60116;Laerm;62818;49.394;8.686;2024-03-06T04:17:50;69.69;41.30;84.95;;
60116;Laerm;62818;49.394;8.686;2024-03-06T04:22:53;69.95;42.03;84.60;;
60116;Laerm;62818;49.394;8.686;2024-03-06T04:27:54;69.95;40.62;84.69;;
60116;Laerm;62818;49.394;8.686;2024-03-06T04:32:54;69.16;41.14;85.11;;
60116;Laerm;62818;49.394;8.686;2024-03-06T04:37:55;69.57;41.06;85.84;;
60116;Laerm;62818;49.394;8.686;2024-03-06T04:42:55;69.78;42.16;85.57;;
60116;Laerm;62818;49.394;8.686;2024-03-06T04:47:56;69.54;42.03;85.46;;
60116;Laerm;62818;49.394;8.686;2024-03-06T04:52:56;69.44;42.35;85.11;;
60116;Laerm;62818;49.394;8.686;2024-03-06T04:57:57;69.59;42.79;84.60;;
60116;Laerm;62818;49.394;8.686;2024-03-06T05:02:57;69.67;43.54;85.65;;
60116;Laerm;62818;49.394;8.686;2024-03-06T05:08:01;69.31;43.46;84.93;;
60116;Laerm;62818;49.394;8.686;2024-03-06T05:13:04;69.71;43.63;85.49;;
60116;Laerm;62818;49.394;8.686;2024-03-06T05:18:05;69.36;42.88;84.68;;
60116;Laerm;62818;49.394;8.686;2024-03-06T05:23:06;58.76;42.76;69.70;;
60116;Laerm;62818;49.394;8.686;2024-03-06T05:28:06;70.19;42.16;85.10;;
60116;Laerm;62818;49.394;8.686;2024-03-06T05:33:07;70.03;44.19;85.92;;
60116;Laerm;62818;49.394;8.686;2024-03-06T05:38:07;69.79;43.86;85.40;;
60116;Laerm;62818;49.394;8.686;2024-03-06T05:43:08;69.97;42.47;85.03;;
60116;Laerm;62818;49.394;8.686;2024-03-06T05:48:08;70.16;42.98;85.06;;
60116;Laerm;62818;49.394;8.686;2024-03-06T05:53:08;70.24;46.66;85.20;;
60116;Laerm;62818;49.394;8.686;2024-03-06T05:58:09;70.22;44.23;85.31;;
60116;Laerm;62818;49.394;8.686;2024-03-06T06:03:10;70.19;45.07;84.85;;
60116;Laerm;62818;49.394;8.686;2024-03-06T06:08:11;70.55;44.58;86.10;;
60116;Laerm;62818;49.394;8.686;2024-03-06T06:13:12;69.64;45.66;85.02;;
60116;Laerm;62818;49.394;8.686;2024-03-06T06:18:13;69.90;44.83;84.84;;
60116;Laerm;62818;49.394;8.686;2024-03-06T06:23:13;70.20;46.43;84.75;;
60116;Laerm;62818;49.394;8.686;2024-03-06T06:28:13;69.16;46.02;84.54;;
60116;Laerm;62818;49.394;8.686;2024-03-06T06:33:14;69.10;44.35;84.06;;
60116;Laerm;62818;49.394;8.686;2024-03-06T06:38:14;69.41;44.83;93.31;;
60116;Laerm;62818;49.394;8.686;2024-03-06T06:43:15;70.50;45.80;87.35;;
60116;Laerm;62818;49.394;8.686;2024-03-06T06:48:15;68.72;47.88;83.09;;
60116;Laerm;62818;49.394;8.686;2024-03-06T06:53:16;68.32;46.23;82.80;;
60116;Laerm;62818;49.394;8.686;2024-03-06T06:58:16;67.64;45.48;82.75;;
60116;Laerm;62818;49.394;8.686;2024-03-06T07:03:17;67.35;45.80;82.32;;
60116;Laerm;62818;49.394;8.686;2024-03-06T07:08:17;68.22;44.80;82.59;;
60116;Laerm;62818;49.394;8.686;2024-03-06T07:13:18;67.90;45.39;82.98;;
60116;Laerm;62818;49.394;8.686;2024-03-06T07:18:18;67.94;44.62;82.15;;
60116;Laerm;62818;49.394;8.686;2024-03-06T07:23:18;67.58;45.54;82.73;;
60116;Laerm;62818;49.394;8.686;2024-03-06T07:28:19;67.12;42.65;82.27;;
60116;Laerm;62818;49.394;8.686;2024-03-06T07:33:21;67.41;42.65;82.45;;
60116;Laerm;62818;49.394;8.686;2024-03-06T07:38:21;66.51;44.07;81.26;;
60116;Laerm;62818;49.394;8.686;2024-03-06T07:43:22;66.75;42.88;82.04;;
60116;Laerm;62818;49.394;8.686;2024-03-06T07:48:23;67.56;42.82;82.27;;
60116;Laerm;62818;49.394;8.686;2024-03-06T07:53:23;67.07;43.72;82.08;;
60116;Laerm;62818;49.394;8.686;2024-03-06T07:58:24;65.77;42.71;80.93;;
60116;Laerm;62818;49.394;8.686;2024-03-06T08:03:24;65.35;42.76;80.11;;
60116;Laerm;62818;49.394;8.686;2024-03-06T08:08:25;64.16;45.45;79.22;;
60116;Laerm;62818;49.394;8.686;2024-03-06T08:13:28;64.56;45.01;80.07;;
60116;Laerm;62818;49.394;8.686;2024-03-06T08:18:29;58.13;42.09;74.61;;
60116;Laerm;62818;49.394;8.686;2024-03-06T08:23:30;66.08;42.93;80.67;;
60116;Laerm;62818;49.394;8.686;2024-03-06T08:28:30;66.01;43.44;80.68;;
60116;Laerm;62818;49.394;8.686;2024-03-06T08:33:31;65.59;43.54;80.35;;
60116;Laerm;62818;49.394;8.686;2024-03-06T08:38:34;65.07;43.99;80.86;;
60116;Laerm;62818;49.394;8.686;2024-03-06T08:43:34;65.41;42.65;81.41;;
60116;Laerm;62818;49.394;8.686;2024-03-06T08:48:35;64.31;42.93;79.86;;
60116;Laerm;62818;49.394;8.686;2024-03-06T08:53:35;64.21;43.09;79.63;;
60116;Laerm;62818;49.394;8.686;2024-03-06T08:58:36;64.02;42.98;79.74;;
60116;Laerm;62818;49.394;8.686;2024-03-06T09:03:36;63.40;43.19;79.70;;
60116;Laerm;62818;49.394;8.686;2024-03-06T09:08:37;56.10;42.09;64.77;;
60116;Laerm;62818;49.394;8.686;2024-03-06T09:13:37;64.91;44.07;79.66;;
60116;Laerm;62818;49.394;8.686;2024-03-06T09:18:37;55.33;43.58;62.85;;
60116;Laerm;62818;49.394;8.686;2024-03-06T09:23:38;63.33;45.01;79.02;;
60116;Laerm;62818;49.394;8.686;2024-03-06T09:28:41;63.08;44.94;77.93;;
60116;Laerm;62818;49.394;8.686;2024-03-06T09:33:44;62.28;46.76;76.80;;
60116;Laerm;62818;49.394;8.686;2024-03-06T09:38:46;61.67;50.80;76.20;;
60116;Laerm;62818;49.394;8.686;2024-03-06T09:43:47;60.25;5.00;74.24;;
60116;Laerm;62818;49.394;8.686;2024-03-06T09:48:49;58.73;5.00;69.98;;
60116;Laerm;62818;49.394;8.686;2024-03-06T09:53:54;57.69;5.00;68.39;;
60116;Laerm;62818;49.394;8.686;2024-03-06T09:58:55;56.39;5.00;67.97;;
60116;Laerm;62818;49.394;8.686;2024-03-06T10:03:55;55.94;5.00;67.33;;
60116;Laerm;62818;49.394;8.686;2024-03-06T10:09:06;57.76;5.00;69.48;;
60116;Laerm;62818;49.394;8.686;2024-03-06T10:14:11;59.72;5.00;72.50;;
60116;Laerm;62818;49.394;8.686;2024-03-06T10:19:16;61.88;30.89;75.69;;
60116;Laerm;62818;49.394;8.686;2024-03-06T10:24:27;62.38;49.95;77.15;;
60116;Laerm;62818;49.394;8.686;2024-03-06T10:29:29;59.05;26.91;75.96;;
60116;Laerm;62818;49.394;8.686;2024-03-06T10:34:29;64.55;32.93;85.64;;
60116;Laerm;62818;49.394;8.686;2024-03-06T10:39:30;56.37;5.00;64.92;;
60116;Laerm;62818;49.394;8.686;2024-03-06T10:44:35;60.45;5.00;73.88;;
60116;Laerm;62818;49.394;8.686;2024-03-06T10:49:38;60.47;36.34;76.04;;
60116;Laerm;62818;49.394;8.686;2024-03-06T10:54:40;59.82;47.44;77.61;;
60116;Laerm;62818;49.394;8.686;2024-03-06T10:59:43;60.31;46.89;77.28;;
60116;Laerm;62818;49.394;8.686;2024-03-06T11:04:44;58.29;49.32;75.53;;
60116;Laerm;62818;49.394;8.686;2024-03-06T11:09:45;57.95;5.00;72.03;;
60116;Laerm;62818;49.394;8.686;2024-03-06T11:14:50;57.19;5.00;68.63;;
60116;Laerm;62818;49.394;8.686;2024-03-06T11:20:18;54.29;5.00;67.43;;
60116;Laerm;62818;49.394;8.686;2024-03-06T11:41:22;62.88;5.00;96.67;;
60116;Laerm;62818;49.394;8.686;2024-03-06T11:46:44;54.85;5.00;66.67;;
60116;Laerm;62818;49.394;8.686;2024-03-06T11:51:45;56.75;5.00;71.87;;
60116;Laerm;62818;49.394;8.686;2024-03-06T11:56:46;56.47;5.00;66.72;;
60116;Laerm;62818;49.394;8.686;2024-03-06T12:01:47;57.33;5.00;69.55;;
60116;Laerm;62818;49.394;8.686;2024-03-06T12:06:48;56.67;5.00;63.13;;
60116;Laerm;62818;49.394;8.686;2024-03-06T12:11:48;59.41;45.94;77.47;;
60116;Laerm;62818;49.394;8.686;2024-03-06T12:16:59;57.05;43.29;74.42;;
60116;Laerm;62818;49.394;8.686;2024-03-06T12:22:02;60.88;42.71;79.24;;
60116;Laerm;62818;49.394;8.686;2024-03-06T12:27:07;61.91;45.20;80.67;;
60116;Laerm;62818;49.394;8.686;2024-03-06T12:32:16;62.82;48.03;81.37;;
60116;Laerm;62818;49.394;8.686;2024-03-06T12:37:17;65.61;49.56;81.61;;
60116;Laerm;62818;49.394;8.686;2024-03-06T12:42:18;58.73;49.20;70.06;;
60116;Laerm;62818;49.394;8.686;2024-03-06T12:47:18;63.16;49.63;80.99;;
60116;Laerm;62818;49.394;8.686;2024-03-06T12:52:19;58.83;47.06;68.73;;
60116;Laerm;62818;49.394;8.686;2024-03-06T12:57:19;64.61;45.30;81.94;;
60116;Laerm;62818;49.394;8.686;2024-03-06T13:02:20;58.94;50.27;67.77;;
60116;Laerm;62818;49.394;8.686;2024-03-06T13:07:20;64.82;50.05;82.45;;
60116;Laerm;62818;49.394;8.686;2024-03-06T13:12:20;74.19;51.60;97.02;;
60116;Laerm;62818;49.394;8.686;2024-03-06T13:17:21;65.82;50.13;81.92;;
60116;Laerm;62818;49.394;8.686;2024-03-06T13:22:22;59.27;50.42;69.61;;
60116;Laerm;62818;49.394;8.686;2024-03-06T13:27:22;67.21;48.99;82.14;;
60116;Laerm;62818;49.394;8.686;2024-03-06T13:32:23;58.30;43.68;65.36;;
60116;Laerm;62818;49.394;8.686;2024-03-06T13:37:23;66.60;44.69;81.62;;
60116;Laerm;62818;49.394;8.686;2024-03-06T13:42:27;63.62;49.00;81.78;;
60116;Laerm;62818;49.394;8.686;2024-03-06T13:47:27;63.52;45.48;81.96;;
60116;Laerm;62818;49.394;8.686;2024-03-06T13:52:27;59.20;50.00;67.55;;
60116;Laerm;62818;49.394;8.686;2024-03-06T13:57:36;66.60;49.88;82.10;;
60116;Laerm;62818;49.394;8.686;2024-03-06T14:02:36;63.89;50.28;82.19;;
60116;Laerm;62818;49.394;8.686;2024-03-06T14:07:38;58.81;50.15;66.22;;
60116;Laerm;62818;49.394;8.686;2024-03-06T14:12:38;64.53;45.91;82.98;;
60116;Laerm;62818;49.394;8.686;2024-03-06T14:17:39;60.03;46.76;68.19;;
60116;Laerm;62818;49.394;8.686;2024-03-06T14:22:39;65.17;51.55;83.81;;
60116;Laerm;62818;49.394;8.686;2024-03-06T14:27:40;61.98;51.34;70.97;;
60116;Laerm;62818;49.394;8.686;2024-03-06T14:32:41;65.02;46.82;83.36;;
60116;Laerm;62818;49.394;8.686;2024-03-06T14:37:42;65.11;50.78;83.49;;
60116;Laerm;62818;49.394;8.686;2024-03-06T14:42:42;61.32;51.41;69.04;;
60116;Laerm;62818;49.394;8.686;2024-03-06T14:47:43;65.10;45.93;83.36;;
60116;Laerm;62818;49.394;8.686;2024-03-06T14:52:43;61.79;47.10;71.33;;
60116;Laerm;62818;49.394;8.686;2024-03-06T14:57:47;66.80;45.72;82.91;;
60116;Laerm;62818;49.394;8.686;2024-03-06T15:02:48;64.45;44.94;82.64;;
60116;Laerm;62818;49.394;8.686;2024-03-06T15:07:48;59.50;43.81;70.63;;
60116;Laerm;62818;49.394;8.686;2024-03-06T15:12:48;63.81;44.69;81.61;;
60116;Laerm;62818;49.394;8.686;2024-03-06T15:17:49;58.89;43.39;70.58;;
60116;Laerm;62818;49.394;8.686;2024-03-06T15:22:50;70.21;44.73;95.02;;
60116;Laerm;62818;49.394;8.686;2024-03-06T15:27:53;66.66;45.27;82.09;;
60116;Laerm;62818;49.394;8.686;2024-03-06T15:32:54;63.65;44.31;81.98;;
60116;Laerm;62818;49.394;8.686;2024-03-06T15:37:55;63.67;43.14;82.24;;
60116;Laerm;62818;49.394;8.686;2024-03-06T15:42:56;60.22;44.97;67.26;;
60116;Laerm;62818;49.394;8.686;2024-03-06T15:47:59;64.15;45.42;82.77;;
60116;Laerm;62818;49.394;8.686;2024-03-06T15:53:00;64.59;43.29;82.91;;
60116;Laerm;62818;49.394;8.686;2024-03-06T15:58:03;64.59;44.27;83.21;;
60116;Laerm;62818;49.394;8.686;2024-03-06T16:03:07;64.81;43.24;83.12;;
60116;Laerm;62818;49.394;8.686;2024-03-06T16:08:08;64.88;45.11;83.59;;
60116;Laerm;62818;49.394;8.686;2024-03-06T16:13:09;64.68;43.24;83.13;;
60116;Laerm;62818;49.394;8.686;2024-03-06T16:18:09;60.62;43.58;68.57;;
60116;Laerm;62818;49.394;8.686;2024-03-06T16:23:09;65.40;45.30;83.44;;
60116;Laerm;62818;49.394;8.686;2024-03-06T16:28:10;64.38;44.43;83.40;;
60116;Laerm;62818;49.394;8.686;2024-03-06T16:33:10;60.05;44.73;70.56;;
60116;Laerm;62818;49.394;8.686;2024-03-06T16:38:11;65.21;43.29;83.66;;
60116;Laerm;62818;49.394;8.686;2024-03-06T16:43:11;60.46;43.99;83.00;;
60116;Laerm;62818;49.394;8.686;2024-03-06T16:48:11;65.45;45.75;84.11;;
60116;Laerm;62818;49.394;8.686;2024-03-06T16:53:12;61.62;46.30;69.98;;
60116;Laerm;62818;49.394;8.686;2024-03-06T16:58:14;65.29;43.94;84.21;;
60116;Laerm;62818;49.394;8.686;2024-03-06T17:03:15;60.74;44.19;69.32;;
60116;Laerm;62818;49.394;8.686;2024-03-06T17:08:15;68.05;45.94;84.35;;
60116;Laerm;62818;49.394;8.686;2024-03-06T17:13:15;60.30;43.86;69.23;;
60116;Laerm;62818;49.394;8.686;2024-03-06T17:18:16;67.78;44.23;84.54;;
60116;Laerm;62818;49.394;8.686;2024-03-06T17:23:17;61.80;45.36;70.06;;
60116;Laerm;62818;49.394;8.686;2024-03-06T17:28:17;66.09;44.47;84.56;;
60116;Laerm;62818;49.394;8.686;2024-03-06T17:33:19;65.96;44.97;84.38;;
60116;Laerm;62818;49.394;8.686;2024-03-06T17:38:20;68.15;43.94;84.39;;
60116;Laerm;62818;49.394;8.686;2024-03-06T17:43:20;59.82;43.68;70.91;;
60116;Laerm;62818;49.394;8.686;2024-03-06T17:48:21;69.52;44.31;84.38;;
60116;Laerm;62818;49.394;8.686;2024-03-06T17:53:24;68.88;44.54;84.52;;
60116;Laerm;62818;49.394;8.686;2024-03-06T17:58:25;59.54;41.75;71.56;;
60116;Laerm;62818;49.394;8.686;2024-03-06T18:03:26;69.09;46.25;84.61;;
60116;Laerm;62818;49.394;8.686;2024-03-06T18:08:26;59.33;44.94;68.31;;
60116;Laerm;62818;49.394;8.686;2024-03-06T18:13:27;68.78;43.77;84.10;;
60116;Laerm;62818;49.394;8.686;2024-03-06T18:18:27;59.97;44.31;69.84;;
60116;Laerm;62818;49.394;8.686;2024-03-06T18:23:31;69.37;46.43;84.45;;
60116;Laerm;62818;49.394;8.686;2024-03-06T18:28:31;59.16;43.24;68.31;;
60116;Laerm;62818;49.394;8.686;2024-03-06T18:33:32;68.12;44.51;84.83;;
60116;Laerm;62818;49.394;8.686;2024-03-06T18:38:33;69.46;43.19;84.54;;
60116;Laerm;62818;49.394;8.686;2024-03-06T18:43:33;60.07;44.58;75.71;;
60116;Laerm;62818;49.394;8.686;2024-03-06T18:48:34;69.43;44.03;84.51;;
60116;Laerm;62818;49.394;8.686;2024-03-06T18:53:34;59.00;42.41;70.21;;
60116;Laerm;62818;49.394;8.686;2024-03-06T18:58:36;69.20;43.24;84.52;;
60116;Laerm;62818;49.394;8.686;2024-03-06T19:03:36;58.42;43.14;70.56;;
60116;Laerm;62818;49.394;8.686;2024-03-06T19:08:37;70.10;43.09;85.02;;
60116;Laerm;62818;49.394;8.686;2024-03-06T19:13:38;59.48;42.22;77.05;;
60116;Laerm;62818;49.394;8.686;2024-03-06T19:18:39;69.75;44.03;84.37;;
60116;Laerm;62818;49.394;8.686;2024-03-06T19:23:39;68.82;42.35;84.62;;
60116;Laerm;62818;49.394;8.686;2024-03-06T19:28:39;69.06;42.76;84.54;;
60116;Laerm;62818;49.394;8.686;2024-03-06T19:33:40;69.33;43.19;84.58;;
60116;Laerm;62818;49.394;8.686;2024-03-06T19:38:40;68.50;42.03;84.76;;
60116;Laerm;62818;49.394;8.686;2024-03-06T19:43:41;68.76;42.09;84.72;;
60116;Laerm;62818;49.394;8.686;2024-03-06T19:48:42;69.01;43.58;84.58;;
60116;Laerm;62818;49.394;8.686;2024-03-06T19:53:43;70.23;41.14;84.34;;
60116;Laerm;62818;49.394;8.686;2024-03-06T19:58:44;58.35;41.96;69.39;;
60116;Laerm;62818;49.394;8.686;2024-03-06T20:03:44;69.94;41.30;84.24;;
60116;Laerm;62818;49.394;8.686;2024-03-06T20:08:45;58.87;40.33;69.96;;
60116;Laerm;62818;49.394;8.686;2024-03-06T20:13:46;69.93;41.68;84.75;;
60116;Laerm;62818;49.394;8.686;2024-03-06T20:18:46;68.58;41.46;85.38;;
60116;Laerm;62818;49.394;8.686;2024-03-06T20:23:49;69.37;42.16;84.78;;
60116;Laerm;62818;49.394;8.686;2024-03-06T20:28:49;69.40;42.98;84.63;;
60116;Laerm;62818;49.394;8.686;2024-03-06T20:33:50;69.41;41.68;84.61;;
60116;Laerm;62818;49.394;8.686;2024-03-06T20:38:51;58.43;42.59;70.63;;
60116;Laerm;62818;49.394;8.686;2024-03-06T20:43:51;69.47;42.69;84.79;;
60116;Laerm;62818;49.394;8.686;2024-03-06T20:48:52;58.53;41.75;75.41;;
60116;Laerm;62818;49.394;8.686;2024-03-06T20:53:53;69.31;42.98;84.83;;
60116;Laerm;62818;49.394;8.686;2024-03-06T20:58:53;56.50;41.22;69.28;;
60116;Laerm;62818;49.394;8.686;2024-03-06T21:03:54;70.14;41.89;84.34;;
60116;Laerm;62818;49.394;8.686;2024-03-06T21:08:54;58.02;42.29;68.44;;
60116;Laerm;62818;49.394;8.686;2024-03-06T21:13:55;69.71;42.03;84.86;;
60116;Laerm;62818;49.394;8.686;2024-03-06T21:18:55;69.23;42.41;85.52;;
60116;Laerm;62818;49.394;8.686;2024-03-06T21:23:56;58.06;41.26;69.30;;
60116;Laerm;62818;49.394;8.686;2024-03-06T21:28:56;69.68;40.13;85.08;;
60116;Laerm;62818;49.394;8.686;2024-03-06T21:33:58;69.59;41.81;85.14;;
60116;Laerm;62818;49.394;8.686;2024-03-06T21:38:59;69.73;40.89;85.59;;
60116;Laerm;62818;49.394;8.686;2024-03-06T21:44:00;69.73;40.62;84.60;;
60116;Laerm;62818;49.394;8.686;2024-03-06T21:49:01;70.31;42.47;84.79;;
60116;Laerm;62818;49.394;8.686;2024-03-06T21:54:01;69.86;40.89;84.95;;
60116;Laerm;62818;49.394;8.686;2024-03-06T21:59:02;69.26;38.95;84.73;;
60116;Laerm;62818;49.394;8.686;2024-03-06T22:04:03;69.60;41.68;84.57;;
60116;Laerm;62818;49.394;8.686;2024-03-06T22:09:03;69.76;40.53;84.50;;
60116;Laerm;62818;49.394;8.686;2024-03-06T22:14:04;69.69;40.03;84.80;;
60116;Laerm;62818;49.394;8.686;2024-03-06T22:19:06;69.74;41.38;85.15;;
60116;Laerm;62818;49.394;8.686;2024-03-06T22:24:07;68.73;38.95;85.26;;
60116;Laerm;62818;49.394;8.686;2024-03-06T22:29:08;54.40;38.67;66.94;;
60116;Laerm;62818;49.394;8.686;2024-03-06T22:34:10;52.46;38.99;65.51;;
60116;Laerm;62818;49.394;8.686;2024-03-06T22:39:10;70.01;36.91;84.58;;
60116;Laerm;62818;49.394;8.686;2024-03-06T22:44:11;69.35;38.52;85.36;;
60116;Laerm;62818;49.394;8.686;2024-03-06T22:49:12;69.57;38.05;85.47;;
60116;Laerm;62818;49.394;8.686;2024-03-06T22:54:12;69.58;36.69;84.68;;
60116;Laerm;62818;49.394;8.686;2024-03-06T22:59:12;69.25;36.91;85.90;;
60116;Laerm;62818;49.394;8.686;2024-03-06T23:04:13;69.61;41.14;84.74;;
60116;Laerm;62818;49.394;8.686;2024-03-06T23:09:13;69.62;38.37;84.61;;
60116;Laerm;62818;49.394;8.686;2024-03-06T23:14:14;68.93;37.52;84.95;;
60116;Laerm;62818;49.394;8.686;2024-03-06T23:19:16;69.85;37.32;84.26;;
60116;Laerm;62818;49.394;8.686;2024-03-06T23:24:17;69.29;35.66;85.26;;
60116;Laerm;62818;49.394;8.686;2024-03-06T23:29:18;69.27;37.70;84.89;;
60116;Laerm;62818;49.394;8.686;2024-03-06T23:34:18;69.81;35.04;84.98;;
60116;Laerm;62818;49.394;8.686;2024-03-06T23:39:19;69.50;35.66;85.97;;
60116;Laerm;62818;49.394;8.686;2024-03-06T23:44:19;69.55;34.31;85.20;;
60116;Laerm;62818;49.394;8.686;2024-03-06T23:49:23;69.79;35.04;85.49;;
60116;Laerm;62818;49.394;8.686;2024-03-06T23:54:23;70.09;34.69;84.73;;
60116;Laerm;62818;49.394;8.686;2024-03-06T23:59:24;69.53;33.44;84.76;;
